createdAt,value
2019-04-27T00:00:05.139Z,39.53
2019-04-27T00:02:39.745Z,39.45
2019-04-27T00:05:14.306Z,39.53
2019-04-27T00:08:03.006Z,39.63
2019-04-27T00:10:48.705Z,39.71
2019-04-27T00:13:20.359Z,39.90
2019-04-27T00:15:54.579Z,40.00
2019-04-27T00:18:27.690Z,40.12
2019-04-27T00:21:03.730Z,40.41
2019-04-27T00:23:35.489Z,40.39
2019-04-27T00:26:07.339Z,40.52
2019-04-27T00:28:39.344Z,40.49
2019-04-27T00:31:11.085Z,40.55
2019-04-27T00:33:43.444Z,40.57
2019-04-27T00:36:16.830Z,40.69
2019-04-27T00:38:53.490Z,40.77
2019-04-27T00:41:26.087Z,40.78
2019-04-27T00:43:57.844Z,40.87
2019-04-27T00:46:29.593Z,41.03
2019-04-27T00:49:01.471Z,41.33
2019-04-27T00:51:33.341Z,41.64
2019-04-27T00:54:05.160Z,41.60
2019-04-27T00:56:56.701Z,41.43
2019-04-27T00:59:29.887Z,41.61
2019-04-27T01:02:15.629Z,41.65
2019-04-27T01:04:49.176Z,41.72
2019-04-27T01:07:20.938Z,41.76
2019-04-27T01:09:52.834Z,41.83
2019-04-27T01:12:25.174Z,41.82
2019-04-27T01:14:56.749Z,41.75
2019-04-27T01:17:28.897Z,41.50
2019-04-27T01:20:00.538Z,41.59
2019-04-27T01:22:32.397Z,41.55
2019-04-27T01:25:05.802Z,41.71
2019-04-27T01:27:55.170Z,41.28
2019-04-27T01:30:34.831Z,41.23
2019-04-27T01:33:06.432Z,41.33
2019-04-27T01:35:39.155Z,41.50
2019-04-27T01:38:10.814Z,41.56
2019-04-27T01:40:42.568Z,41.71
2019-04-27T01:43:14.413Z,42.12
2019-04-27T01:45:46.086Z,42.23
2019-04-27T01:48:23.642Z,42.34
2019-04-27T01:50:51.015Z,42.35
2019-04-27T01:53:22.708Z,42.24
2019-04-27T01:55:54.549Z,42.52
2019-04-27T01:58:26.107Z,42.74
2019-04-27T02:01:05.794Z,42.81
2019-04-27T02:03:45.062Z,42.99
2019-04-27T02:06:16.951Z,43.13
2019-04-27T02:08:49.315Z,43.18
2019-04-27T02:11:21.065Z,43.29
2019-04-27T02:13:52.759Z,43.27
2019-04-27T02:16:24.464Z,43.40
2019-04-27T02:18:56.019Z,43.50
2019-04-27T02:21:29.474Z,43.42
2019-04-27T02:24:00.974Z,43.37
2019-04-27T02:26:32.928Z,43.26
2019-04-27T02:29:22.498Z,43.27
2019-04-27T02:32:12.083Z,43.13
2019-04-27T02:35:00.425Z,43.26
2019-04-27T02:37:32.286Z,43.37
2019-04-27T02:40:05.800Z,43.34
2019-04-27T02:42:39.742Z,43.25
2019-04-27T02:45:12.433Z,43.11
2019-04-27T02:47:44.030Z,42.99
2019-04-27T02:50:15.686Z,43.07
2019-04-27T02:52:50.053Z,42.76
2019-04-27T02:55:21.267Z,42.77
2019-04-27T02:57:52.828Z,42.90
2019-04-27T03:00:24.655Z,42.76
2019-04-27T03:02:59.791Z,42.87
2019-04-27T03:05:31.244Z,42.82
2019-04-27T03:08:03.010Z,42.88
2019-04-27T03:10:34.969Z,42.82
2019-04-27T03:13:15.216Z,42.89
2019-04-27T03:16:00.900Z,43.04
2019-04-27T03:18:37.163Z,42.83
2019-04-27T03:21:19.840Z,42.69
2019-04-27T03:23:50.409Z,42.57
2019-04-27T03:26:23.909Z,42.43
2019-04-27T03:28:55.484Z,42.34
2019-04-27T03:31:27.421Z,42.42
2019-04-27T03:34:04.822Z,42.34
2019-04-27T03:36:32.479Z,42.35
2019-04-27T03:39:05.164Z,42.31
2019-04-27T03:41:36.807Z,42.27
2019-04-27T03:44:09.408Z,42.22
2019-04-27T03:46:41.070Z,42.27
2019-04-27T03:49:28.182Z,42.30
2019-04-27T03:51:50.089Z,42.28
2019-04-27T03:54:23.499Z,42.32
2019-04-27T03:56:59.123Z,42.40
2019-04-27T03:59:50.622Z,42.35
2019-04-27T04:02:21.301Z,42.27
2019-04-27T04:04:54.617Z,42.35
2019-04-27T04:07:26.337Z,42.29
2019-04-27T04:10:00.249Z,42.29
2019-04-27T04:12:33.232Z,42.46
2019-04-27T04:15:11.246Z,42.44
2019-04-27T04:17:42.817Z,42.46
2019-04-27T04:20:14.519Z,42.45
2019-04-27T04:22:46.007Z,42.40
2019-04-27T04:25:19.886Z,42.43
2019-04-27T04:27:50.944Z,42.39
2019-04-27T04:30:22.896Z,42.25
2019-04-27T04:32:54.501Z,42.57
2019-04-27T04:35:26.392Z,42.69
2019-04-27T04:38:00.392Z,42.49
2019-04-27T04:40:33.531Z,42.15
2019-04-27T04:43:10.832Z,42.19
2019-04-27T04:45:44.235Z,42.15
2019-04-27T04:48:19.856Z,41.80
2019-04-27T04:50:50.679Z,41.49
2019-04-27T04:53:22.332Z,41.61
2019-04-27T04:55:53.933Z,41.44
2019-04-27T04:58:25.548Z,41.19
2019-04-27T05:00:59.692Z,41.20
2019-04-27T05:03:30.593Z,41.46
2019-04-27T05:06:02.269Z,41.67
2019-04-27T05:08:34.121Z,41.63
2019-04-27T05:11:05.680Z,41.39
2019-04-27T05:13:39.283Z,41.33
2019-04-27T05:16:10.608Z,41.47
2019-04-27T05:18:43.287Z,41.51
2019-04-27T05:21:22.945Z,41.24
2019-04-27T05:23:55.813Z,40.90
2019-04-27T05:26:29.368Z,41.49
2019-04-27T05:29:00.680Z,41.28
2019-04-27T05:31:32.439Z,40.92
2019-04-27T05:34:06.797Z,41.19
2019-04-27T05:36:41.793Z,40.03
2019-04-27T05:39:13.267Z,39.68
2019-04-27T05:41:44.154Z,39.04
2019-04-27T05:44:19.044Z,38.53
2019-04-27T05:47:01.081Z,38.55
2019-04-27T05:49:44.098Z,37.75
2019-04-27T05:52:29.756Z,37.71
2019-04-27T05:55:01.655Z,38.32
2019-04-27T05:57:33.633Z,37.81
2019-04-27T06:00:09.154Z,37.57
2019-04-27T06:02:41.256Z,37.76
2019-04-27T06:05:13.078Z,37.58
2019-04-27T06:07:44.742Z,37.12
2019-04-27T06:10:16.859Z,37.28
2019-04-27T06:12:49.480Z,36.54
2019-04-27T06:15:20.974Z,36.29
2019-04-27T06:17:52.948Z,36.12
2019-04-27T06:20:24.546Z,36.20
2019-04-27T06:22:56.231Z,36.26
2019-04-27T06:25:30.523Z,36.49
2019-04-27T06:28:01.271Z,36.35
2019-04-27T06:30:32.923Z,36.43
2019-04-27T06:33:04.687Z,36.07
2019-04-27T06:35:36.419Z,35.65
2019-04-27T06:38:10.131Z,34.74
2019-04-27T06:40:41.805Z,35.01
2019-04-27T06:43:13.712Z,34.56
2019-04-27T06:45:45.422Z,34.37
2019-04-27T06:48:17.291Z,34.04
2019-04-27T06:51:02.719Z,32.80
2019-04-27T06:53:23.779Z,32.69
2019-04-27T06:55:55.227Z,32.66
2019-04-27T06:58:27.062Z,31.84
2019-04-27T07:00:59.538Z,32.01
2019-04-27T07:03:31.292Z,31.03
2019-04-27T07:06:03.037Z,31.16
2019-04-27T07:08:35.513Z,31.02
2019-04-27T07:11:08.954Z,32.64
2019-04-27T07:13:40.463Z,31.85
2019-04-27T07:16:12.250Z,30.26
2019-04-27T07:18:44.053Z,29.57
2019-04-27T07:21:19.033Z,29.52
2019-04-27T07:23:59.405Z,29.44
2019-04-27T07:26:31.349Z,30.23
2019-04-27T07:29:02.986Z,29.29
2019-04-27T07:31:34.645Z,29.16
2019-04-27T07:34:07.140Z,29.48
2019-04-27T07:36:39.297Z,29.81
2019-04-27T07:39:11.613Z,28.39
2019-04-27T07:41:43.258Z,27.68
2019-04-27T07:44:16.535Z,27.74
2019-04-27T07:46:49.892Z,28.09
2019-04-27T07:49:21.470Z,27.58
2019-04-27T07:51:53.228Z,27.30
2019-04-27T07:54:25.066Z,26.66
2019-04-27T07:56:56.520Z,26.80
2019-04-27T07:59:29.491Z,26.02
2019-04-27T08:02:01.060Z,26.37
2019-04-27T08:04:32.830Z,26.51
2019-04-27T08:07:04.503Z,26.01
2019-04-27T08:09:36.022Z,26.07
2019-04-27T08:12:08.008Z,25.74
2019-04-27T08:14:39.639Z,26.81
2019-04-27T08:17:11.305Z,26.50
2019-04-27T08:19:42.972Z,26.20
2019-04-27T08:22:16.501Z,26.84
2019-04-27T08:24:49.585Z,27.21
2019-04-27T08:27:25.537Z,27.39
2019-04-27T08:29:58.856Z,28.07
2019-04-27T08:32:41.596Z,27.66
2019-04-27T08:35:14.254Z,27.92
2019-04-27T08:37:46.265Z,27.35
2019-04-27T08:40:19.272Z,27.52
2019-04-27T08:42:51.399Z,26.96
2019-04-27T08:45:22.900Z,27.33
2019-04-27T08:47:54.319Z,27.41
2019-04-27T08:50:26.157Z,27.66
2019-04-27T08:52:57.647Z,27.97
2019-04-27T08:55:29.526Z,27.19
2019-04-27T08:58:01.350Z,27.39
2019-04-27T09:00:33.090Z,27.62
2019-04-27T09:03:04.742Z,27.64
2019-04-27T09:05:36.608Z,27.53
2019-04-27T09:08:19.094Z,27.79
2019-04-27T09:11:01.619Z,27.19
2019-04-27T09:13:43.924Z,26.69
2019-04-27T09:16:20.299Z,26.84
2019-04-27T09:18:53.789Z,26.98
2019-04-27T09:21:25.456Z,27.01
2019-04-27T09:23:57.013Z,27.01
2019-04-27T09:26:28.857Z,27.05
2019-04-27T09:29:02.251Z,27.14
2019-04-27T09:31:34.149Z,27.13
2019-04-27T09:34:05.868Z,27.43
2019-04-27T09:36:37.634Z,27.90
2019-04-27T09:39:11.540Z,27.24
2019-04-27T09:41:43.332Z,27.37
2019-04-27T09:44:16.057Z,27.42
2019-04-27T09:46:47.726Z,28.08
2019-04-27T09:49:20.811Z,27.80
2019-04-27T09:51:52.513Z,27.68
2019-04-27T09:54:24.333Z,27.79
2019-04-27T09:56:56.153Z,27.13
2019-04-27T09:59:28.101Z,26.44
2019-04-27T10:01:59.923Z,27.07
2019-04-27T10:04:32.088Z,27.00
2019-04-27T10:07:03.745Z,26.89
2019-04-27T10:09:36.841Z,27.07
2019-04-27T10:12:08.624Z,26.85
2019-04-27T10:14:40.232Z,27.38
2019-04-27T10:17:12.269Z,27.26
2019-04-27T10:19:43.957Z,26.94
2019-04-27T10:22:16.147Z,26.83
2019-04-27T10:24:47.780Z,26.96
2019-04-27T10:27:19.589Z,26.80
2019-04-27T10:29:51.111Z,27.21
2019-04-27T10:32:22.948Z,27.43
2019-04-27T10:34:54.496Z,27.05
2019-04-27T10:37:26.479Z,26.54
2019-04-27T10:39:58.318Z,26.89
2019-04-27T10:42:30.139Z,26.81
2019-04-27T10:45:01.957Z,26.77
2019-04-27T10:47:36.007Z,27.17
2019-04-27T10:50:07.898Z,27.68
2019-04-27T10:52:52.604Z,27.64
2019-04-27T10:55:12.896Z,27.86
2019-04-27T10:57:44.443Z,27.48
2019-04-27T11:00:17.614Z,26.93
2019-04-27T11:02:49.259Z,26.68
2019-04-27T11:05:31.190Z,26.85
2019-04-27T11:08:02.650Z,25.49
2019-04-27T11:10:36.063Z,26.11
2019-04-27T11:13:07.655Z,26.07
2019-04-27T11:15:39.615Z,26.41
2019-04-27T11:18:11.529Z,26.57
2019-04-27T11:20:43.130Z,26.51
2019-04-27T11:23:16.409Z,27.53
2019-04-27T11:25:48.080Z,27.37
2019-04-27T11:28:19.864Z,27.07
2019-04-27T11:30:51.758Z,27.25
2019-04-27T11:33:23.582Z,27.55
2019-04-27T11:35:56.878Z,27.69
2019-04-27T11:38:28.388Z,27.86
2019-04-27T11:41:00.094Z,28.06
2019-04-27T11:43:31.521Z,27.94
2019-04-27T11:46:03.063Z,27.85
2019-04-27T11:48:36.154Z,27.55
2019-04-27T11:51:07.730Z,27.30
2019-04-27T11:53:39.478Z,27.94
2019-04-27T11:56:11.219Z,28.27
2019-04-27T11:58:42.924Z,27.43
2019-04-27T12:01:15.982Z,28.17
2019-04-27T12:03:47.618Z,27.90
2019-04-27T12:06:19.477Z,28.21
2019-04-27T12:08:51.445Z,28.28
2019-04-27T12:11:23.213Z,27.99
2019-04-27T12:13:56.152Z,27.42
2019-04-27T12:16:27.841Z,26.46
2019-04-27T12:19:01.237Z,26.46
2019-04-27T12:21:33.135Z,27.32
2019-04-27T12:24:05.098Z,27.05
2019-04-27T12:26:41.231Z,27.25
2019-04-27T12:29:16.159Z,26.94
2019-04-27T12:31:49.091Z,27.61
2019-04-27T12:34:20.871Z,27.81
2019-04-27T12:36:53.381Z,27.87
2019-04-27T12:39:26.742Z,27.78
2019-04-27T12:41:58.226Z,27.88
2019-04-27T12:44:29.968Z,27.32
2019-04-27T12:47:02.617Z,27.54
2019-04-27T12:49:36.129Z,27.67
2019-04-27T12:52:07.814Z,28.10
2019-04-27T12:54:46.941Z,27.99
2019-04-27T12:57:20.979Z,27.60
2019-04-27T13:00:00.020Z,27.63
2019-04-27T13:02:33.413Z,27.21
2019-04-27T13:05:07.160Z,27.53
2019-04-27T13:07:38.725Z,27.45
2019-04-27T13:10:15.909Z,27.80
2019-04-27T13:12:47.636Z,27.48
2019-04-27T13:15:20.450Z,27.66
2019-04-27T13:17:52.100Z,27.57
2019-04-27T13:20:25.632Z,27.12
2019-04-27T13:22:57.156Z,27.21
2019-04-27T13:25:28.944Z,27.43
2019-04-27T13:28:01.194Z,27.60
2019-04-27T13:30:32.881Z,27.54
2019-04-27T13:33:04.538Z,27.22
2019-04-27T13:35:36.388Z,26.77
2019-04-27T13:38:08.333Z,26.45
2019-04-27T13:40:41.607Z,26.76
2019-04-27T13:43:20.941Z,27.11
2019-04-27T13:46:00.584Z,27.21
2019-04-27T13:48:34.105Z,27.57
2019-04-27T13:51:07.575Z,27.87
2019-04-27T13:53:41.001Z,28.07
2019-04-27T13:56:17.402Z,28.28
2019-04-27T13:58:48.689Z,28.14
2019-04-27T14:01:20.239Z,28.42
2019-04-27T14:03:52.103Z,28.40
2019-04-27T14:06:25.246Z,28.37
2019-04-27T14:08:58.750Z,28.74
2019-04-27T14:11:30.238Z,28.84
2019-04-27T14:14:02.013Z,29.03
2019-04-27T14:16:33.891Z,29.21
2019-04-27T14:19:05.631Z,29.33
2019-04-27T14:21:38.842Z,28.78
2019-04-27T14:24:10.697Z,28.78
2019-04-27T14:26:42.354Z,28.65
2019-04-27T14:29:14.329Z,28.76
2019-04-27T14:31:47.877Z,28.97
2019-04-27T14:34:19.708Z,29.02
2019-04-27T14:36:51.622Z,29.23
2019-04-27T14:39:23.552Z,29.51
2019-04-27T14:41:55.382Z,29.95
2019-04-27T14:44:29.294Z,30.12
2019-04-27T14:47:01.005Z,30.21
2019-04-27T14:49:32.956Z,30.07
2019-04-27T14:52:04.632Z,29.98
2019-04-27T14:54:46.032Z,29.69
2019-04-27T14:57:09.566Z,29.88
2019-04-27T14:59:41.311Z,29.80
2019-04-27T15:02:13.276Z,29.88
2019-04-27T15:04:45.560Z,30.04
2019-04-27T15:07:18.058Z,30.19
2019-04-27T15:09:54.433Z,30.19
2019-04-27T15:12:30.382Z,30.34
2019-04-27T15:14:59.443Z,30.30
2019-04-27T15:17:31.297Z,30.42
2019-04-27T15:20:08.222Z,30.46
2019-04-27T15:22:40.507Z,30.44
2019-04-27T15:25:15.171Z,30.49
2019-04-27T15:27:47.542Z,30.72
2019-04-27T15:30:22.285Z,30.89
2019-04-27T15:32:55.477Z,31.04
2019-04-27T15:35:40.634Z,31.15
2019-04-27T15:38:15.467Z,31.18
2019-04-27T15:41:08.683Z,31.32
2019-04-27T15:43:43.156Z,31.54
2019-04-27T15:46:15.323Z,31.44
2019-04-27T15:48:48.714Z,31.71
2019-04-27T15:51:21.251Z,31.74
2019-04-27T15:53:54.040Z,31.78
2019-04-27T15:56:25.565Z,32.02
2019-04-27T15:58:59.894Z,31.86
2019-04-27T16:01:35.771Z,31.82
2019-04-27T16:04:07.617Z,31.81
2019-04-27T16:06:38.474Z,31.88
2019-04-27T16:09:16.127Z,31.64
2019-04-27T16:11:50.104Z,31.61
2019-04-27T16:14:19.217Z,31.59
2019-04-27T16:16:50.995Z,31.65
2019-04-27T16:19:22.756Z,31.64
2019-04-27T16:21:54.822Z,31.77
2019-04-27T16:24:26.512Z,31.67
2019-04-27T16:27:00.021Z,31.93
2019-04-27T16:29:32.013Z,32.10
2019-04-27T16:32:09.634Z,32.06
2019-04-27T16:34:41.032Z,32.07
2019-04-27T16:37:13.971Z,32.30
2019-04-27T16:39:47.208Z,32.60
2019-04-27T16:42:18.778Z,32.61
2019-04-27T16:44:53.157Z,32.62
2019-04-27T16:47:24.776Z,32.60
2019-04-27T16:49:56.536Z,32.95
2019-04-27T16:52:29.827Z,32.94
2019-04-27T16:55:01.364Z,33.22
2019-04-27T16:57:37.461Z,33.27
2019-04-27T17:00:09.749Z,33.41
2019-04-27T17:03:35.786Z,33.28
2019-04-27T17:06:07.846Z,33.45
2019-04-27T17:08:39.364Z,33.51
2019-04-27T17:11:13.756Z,33.71
2019-04-27T17:13:58.988Z,33.88
2019-04-27T17:16:39.041Z,33.85
2019-04-27T17:19:12.500Z,33.89
2019-04-27T17:21:45.292Z,33.92
2019-04-27T17:24:45.307Z,33.97
2019-04-27T17:27:16.249Z,34.18
2019-04-27T17:29:50.006Z,34.65
2019-04-27T17:32:25.603Z,35.33
2019-04-27T17:35:02.011Z,35.54
2019-04-27T17:37:33.711Z,35.49
2019-04-27T17:40:05.873Z,35.24
2019-04-27T17:42:37.636Z,35.08
2019-04-27T17:45:10.731Z,35.46
2019-04-27T17:47:42.556Z,34.88
2019-04-27T17:50:18.417Z,34.67
2019-04-27T17:52:54.774Z,34.80
2019-04-27T17:55:24.203Z,34.66
2019-04-27T17:58:00.587Z,35.64
2019-04-27T18:00:41.023Z,34.74
2019-04-27T18:03:05.907Z,34.74
2019-04-27T18:05:43.801Z,34.99
2019-04-27T18:08:20.006Z,33.82
2019-04-27T18:10:53.666Z,33.72
2019-04-27T18:13:25.642Z,33.66
2019-04-27T18:15:56.679Z,33.49
2019-04-27T18:18:30.455Z,33.66
2019-04-27T18:21:02.003Z,33.45
2019-04-27T18:23:35.323Z,33.28
2019-04-27T18:26:08.459Z,33.30
2019-04-27T18:28:41.607Z,33.22
2019-04-27T18:31:17.878Z,33.17
2019-04-27T18:33:51.980Z,33.31
2019-04-27T18:36:23.448Z,33.29
2019-04-27T18:38:55.370Z,33.54
2019-04-27T18:41:29.008Z,33.62
2019-04-27T18:44:02.277Z,33.68
2019-04-27T18:46:35.263Z,33.56
2019-04-27T18:49:10.494Z,33.57
2019-04-27T18:52:10.773Z,33.65
2019-04-27T18:54:42.645Z,33.80
2019-04-27T18:57:17.909Z,33.85
2019-04-27T18:59:50.690Z,33.87
2019-04-27T19:02:23.291Z,33.57
2019-04-27T19:04:58.768Z,33.69
2019-04-27T19:07:30.983Z,33.82
2019-04-27T19:10:02.775Z,33.90
2019-04-27T19:12:35.130Z,34.02
2019-04-27T19:15:08.384Z,34.13
2019-04-27T19:17:40.124Z,34.12
2019-04-27T19:20:12.203Z,34.29
2019-04-27T19:22:44.725Z,34.35
2019-04-27T19:25:21.276Z,34.52
2019-04-27T19:28:11.152Z,34.52
2019-04-27T19:30:47.328Z,34.83
2019-04-27T19:33:19.159Z,34.88
2019-04-27T19:35:51.055Z,34.98
2019-04-27T19:38:22.932Z,35.04
2019-04-27T19:40:54.784Z,35.14
2019-04-27T19:43:28.353Z,35.21
2019-04-27T19:45:59.922Z,35.36
2019-04-27T19:48:31.563Z,35.45
2019-04-27T19:51:03.529Z,35.32
2019-04-27T19:53:35.384Z,35.56
2019-04-27T19:56:07.269Z,35.54
2019-04-27T19:58:40.477Z,35.49
2019-04-27T20:01:14.702Z,35.68
2019-04-27T20:03:47.849Z,35.63
2019-04-27T20:06:19.403Z,35.74
2019-04-27T20:08:52.690Z,35.74
2019-04-27T20:11:24.451Z,35.74
2019-04-27T20:13:56.306Z,35.94
2019-04-27T20:16:28.394Z,35.98
2019-04-27T20:19:01.509Z,36.10
2019-04-27T20:21:34.170Z,36.20
2019-04-27T20:24:05.713Z,36.01
2019-04-27T20:26:37.447Z,36.12
2019-04-27T20:29:09.212Z,36.13
2019-04-27T20:31:41.209Z,36.23
2019-04-27T20:34:12.746Z,36.13
2019-04-27T20:36:44.555Z,36.24
2019-04-27T20:39:16.593Z,36.39
2019-04-27T20:41:48.429Z,36.33
2019-04-27T20:44:21.159Z,36.35
2019-04-27T20:46:52.868Z,36.17
2019-04-27T20:49:24.460Z,36.32
2019-04-27T20:51:58.064Z,36.32
2019-04-27T20:54:30.647Z,36.23
2019-04-27T20:57:02.668Z,36.17
2019-04-27T20:59:34.392Z,36.23
2019-04-27T21:02:24.211Z,36.22
2019-04-27T21:04:57.470Z,36.27
2019-04-27T21:07:39.978Z,36.51
2019-04-27T21:10:11.731Z,36.70
2019-04-27T21:12:45.254Z,36.60
2019-04-27T21:15:16.807Z,36.86
2019-04-27T21:17:48.450Z,37.17
2019-04-27T21:20:21.909Z,37.28
2019-04-27T21:22:53.553Z,37.26
2019-04-27T21:25:26.094Z,37.35
2019-04-27T21:27:57.741Z,37.47
2019-04-27T21:30:31.238Z,37.40
2019-04-27T21:33:02.874Z,37.53
2019-04-27T21:35:35.931Z,37.48
2019-04-27T21:38:07.704Z,37.57
2019-04-27T21:40:40.857Z,37.73
2019-04-27T21:43:14.763Z,37.94
2019-04-27T21:45:46.277Z,38.02
2019-04-27T21:48:18.050Z,37.91
2019-04-27T21:50:51.717Z,37.82
2019-04-27T21:53:27.606Z,38.20
2019-04-27T21:56:03.561Z,38.25
2019-04-27T21:58:35.333Z,38.27
2019-04-27T22:01:18.667Z,38.44
2019-04-27T22:03:52.743Z,38.35
2019-04-27T22:06:24.190Z,38.49
2019-04-27T22:08:55.655Z,38.46
2019-04-27T22:11:27.398Z,38.73
2019-04-27T22:14:01.346Z,38.65
2019-04-27T22:16:33.169Z,38.56
2019-04-27T22:19:05.370Z,37.57
2019-04-27T22:21:36.840Z,37.10
2019-04-27T22:24:18.987Z,37.38
2019-04-27T22:26:52.993Z,38.16
2019-04-27T22:29:24.684Z,39.23
2019-04-27T22:31:56.227Z,39.53
2019-04-27T22:34:27.894Z,39.54
2019-04-27T22:37:00.943Z,39.68
2019-04-27T22:39:37.014Z,40.75
2019-04-27T22:42:26.617Z,41.31
2019-04-27T22:45:01.267Z,41.23
2019-04-27T22:47:33.185Z,41.50
2019-04-27T22:50:06.888Z,40.82
2019-04-27T22:52:38.459Z,40.18
2019-04-27T22:55:11.819Z,40.41
2019-04-27T22:57:47.881Z,40.65
2019-04-27T23:00:37.758Z,40.49
2019-04-27T23:03:11.280Z,40.89
2019-04-27T23:05:43.101Z,41.05
2019-04-27T23:08:15.077Z,41.64
2019-04-27T23:10:46.938Z,41.22
2019-04-27T23:13:18.819Z,40.94
2019-04-27T23:15:52.184Z,41.12
2019-04-27T23:18:23.666Z,41.56
2019-04-27T23:20:55.502Z,41.90
2019-04-27T23:23:27.055Z,41.72
2019-04-27T23:25:58.658Z,41.92
2019-04-27T23:28:31.267Z,42.45
2019-04-27T23:31:07.652Z,42.18
2019-04-27T23:33:42.265Z,42.35
2019-04-27T23:36:13.754Z,42.24
2019-04-27T23:38:45.692Z,41.52
2019-04-27T23:41:17.519Z,41.43
2019-04-27T23:43:49.346Z,41.33
2019-04-27T23:46:21.506Z,41.66
2019-04-27T23:48:53.887Z,41.77
2019-04-27T23:51:30.660Z,41.99
2019-04-27T23:54:02.195Z,41.94
2019-04-27T23:56:33.590Z,42.60
2019-04-27T23:59:05.386Z,42.08
